Time,TemperatureF,DewpointF,PressureIn,WindDirection,WindDirectionDegrees,WindSpeedMPH,WindSpeedGustMPH,Humidity,HourlyPrecipIn,Conditions,Clouds,dailyrainin,SoftwareType,DateUTC
2013-09-25 00:09:00,57.7,57.0,29.99,SE,132,0.0,0.0,96,0.00,,,0.00,weatherlink.com 1.10,2013-09-25 04:09:00,
2013-09-25 00:24:00,57.5,56.0,29.99,SE,132,0.0,0.0,96,0.00,,,0.00,weatherlink.com 1.10,2013-09-25 04:24:00,
2013-09-25 00:39:00,57.2,56.0,29.99,SE,132,0.0,0.0,97,0.00,,,0.00,weatherlink.com 1.10,2013-09-25 04:39:00,
2013-09-25 00:54:00,57.0,56.0,29.99,SE,132,0.0,0.0,97,0.00,,,0.00,weatherlink.com 1.10,2013-09-25 04:54:00,
2013-09-25 01:09:00,56.8,56.0,29.99,SE,132,0.0,0.0,97,0.00,,,0.00,weatherlink.com 1.10,2013-09-25 05:09:00,
2013-09-25 01:24:00,56.6,56.0,29.99,SE,132,0.0,0.0,97,0.00,,,0.00,weatherlink.com 1.10,2013-09-25 05:24:00,
2013-09-25 01:39:00,56.5,56.0,29.98,SE,132,0.0,0.0,97,0.00,,,0.00,weatherlink.com 1.10,2013-09-25 05:39:00,
2013-09-25 01:54:00,56.3,56.0,29.98,SE,132,0.0,0.0,97,0.00,,,0.00,weatherlink.com 1.10,2013-09-25 05:54:00,
2013-09-25 02:09:00,56.1,55.0,29.98,SE,132,0.0,0.0,97,0.00,,,0.00,weatherlink.com 1.10,2013-09-25 06:09:00,
2013-09-25 02:24:00,55.8,55.0,29.98,SE,132,0.0,0.0,97,0.00,,,0.00,weatherlink.com 1.10,2013-09-25 06:24:00,
2013-09-25 02:39:00,55.6,55.0,29.98,SE,132,0.0,0.0,97,0.00,,,0.00,weatherlink.com 1.10,2013-09-25 06:39:00,
2013-09-25 02:54:00,55.3,55.0,29.98,SE,132,0.0,0.0,97,0.00,,,0.00,weatherlink.com 1.10,2013-09-25 06:54:00,
2013-09-25 03:09:00,55.2,54.0,29.97,SE,132,0.0,0.0,97,0.00,,,0.00,weatherlink.com 1.10,2013-09-25 07:09:00,
2013-09-25 03:24:00,54.9,54.0,29.97,SE,132,0.0,0.0,97,0.00,,,0.00,weatherlink.com 1.10,2013-09-25 07:24:00,
2013-09-25 03:39:00,54.8,54.0,29.96,SE,132,0.0,0.0,97,0.00,,,0.00,weatherlink.com 1.10,2013-09-25 07:39:00,
2013-09-25 03:54:00,54.9,54.0,29.97,SE,132,0.0,0.0,98,0.00,,,0.00,weatherlink.com 1.10,2013-09-25 07:54:00,
2013-09-25 04:09:00,54.8,54.0,29.96,SE,132,0.0,0.0,98,0.00,,,0.00,weatherlink.com 1.10,2013-09-25 08:09:00,
2013-09-25 04:24:00,54.8,54.0,29.96,SE,132,0.0,0.0,98,0.00,,,0.00,weatherlink.com 1.10,2013-09-25 08:24:00,
2013-09-25 04:39:00,54.8,54.0,29.96,SE,132,0.0,0.0,98,0.00,,,0.00,weatherlink.com 1.10,2013-09-25 08:39:00,
2013-09-25 04:54:00,54.7,54.0,29.96,SE,132,0.0,0.0,98,0.00,,,0.00,weatherlink.com 1.10,2013-09-25 08:54:00,
2013-09-25 05:09:00,54.7,54.0,29.95,SE,132,0.0,0.0,98,0.00,,,0.00,weatherlink.com 1.10,2013-09-25 09:09:00,
2013-09-25 05:24:00,54.4,54.0,29.95,SE,132,0.0,0.0,98,0.00,,,0.00,weatherlink.com 1.10,2013-09-25 09:24:00,
2013-09-25 05:39:00,54.2,54.0,29.95,SE,132,0.0,0.0,98,0.00,,,0.00,weatherlink.com 1.10,2013-09-25 09:39:00,
2013-09-25 05:54:00,53.9,53.0,29.95,SE,132,0.0,0.0,97,0.00,,,0.00,weatherlink.com 1.10,2013-09-25 09:54:00,
2013-09-25 06:10:00,53.6,53.0,29.95,SE,132,0.0,0.0,98,0.00,,,0.00,weatherlink.com 1.10,2013-09-25 10:10:00,
2013-09-25 06:25:00,53.5,53.0,29.95,SE,132,0.0,0.0,98,0.00,,,0.00,weatherlink.com 1.10,2013-09-25 10:25:00,
2013-09-25 06:40:00,53.3,53.0,29.95,SE,132,0.0,0.0,98,0.00,,,0.00,weatherlink.com 1.10,2013-09-25 10:40:00,
2013-09-25 06:55:00,53.1,53.0,29.95,SE,132,0.0,0.0,98,0.00,,,0.00,weatherlink.com 1.10,2013-09-25 10:55:00,
2013-09-25 07:10:00,53.0,53.0,29.95,SE,132,0.0,0.0,98,0.00,,,0.00,weatherlink.com 1.10,2013-09-25 11:10:00,
2013-09-25 07:25:00,52.9,52.0,29.95,SE,132,0.0,0.0,98,0.00,,,0.00,weatherlink.com 1.10,2013-09-25 11:25:00,
2013-09-25 07:40:00,53.0,53.0,29.96,SE,132,0.0,0.0,98,0.00,,,0.00,weatherlink.com 1.10,2013-09-25 11:40:00,
2013-09-25 07:57:00,53.5,53.0,29.96,SE,132,0.0,0.0,98,0.00,,,0.00,weatherlink.com 1.10,2013-09-25 11:57:00,
2013-09-25 08:10:00,55.3,55.0,29.95,SE,132,0.0,0.0,99,0.00,,,0.00,weatherlink.com 1.10,2013-09-25 12:10:00,
2013-09-25 08:25:00,58.2,58.0,29.95,SE,132,0.0,0.0,99,0.00,,,0.00,weatherlink.com 1.10,2013-09-25 12:25:00,
2013-09-25 08:40:00,61.1,59.0,29.95,SE,132,0.0,0.0,94,0.00,,,0.00,weatherlink.com 1.10,2013-09-25 12:40:00,
2013-09-25 08:55:00,64.4,60.0,29.95,NE,39,3.0,3.0,84,0.00,,,0.00,weatherlink.com 1.10,2013-09-25 12:55:00,
2013-09-25 09:10:00,67.2,60.0,29.94,NE,34,0.0,4.0,77,0.00,,,0.00,weatherlink.com 1.10,2013-09-25 13:10:00,
2013-09-25 09:25:00,68.7,59.0,29.94,NNE,24,0.0,6.0,70,0.00,,,0.00,weatherlink.com 1.10,2013-09-25 13:25:00,
2013-09-25 09:40:00,69.9,60.0,29.94,North,5,0.0,7.0,70,0.00,,,0.00,weatherlink.com 1.10,2013-09-25 13:40:00,
2013-09-25 09:55:00,70.1,59.0,29.95,NE,49,2.0,3.0,69,0.00,,,0.00,weatherlink.com 1.10,2013-09-25 13:55:00,
2013-09-25 10:10:00,69.0,58.0,29.95,North,351,0.0,6.0,69,0.00,,,0.00,weatherlink.com 1.10,2013-09-25 14:10:00,
2013-09-25 10:25:00,69.0,59.0,29.95,NE,48,0.0,5.0,70,0.00,,,0.00,weatherlink.com 1.10,2013-09-25 14:25:00,
2013-09-25 10:40:00,69.3,60.0,29.95,NNE,26,1.0,3.0,71,0.00,,,0.00,weatherlink.com 1.10,2013-09-25 14:40:00,
2013-09-25 10:55:00,69.4,60.0,29.95,NE,42,0.0,4.0,73,0.00,,,0.00,weatherlink.com 1.10,2013-09-25 14:55:00,
2013-09-25 11:10:00,69.9,59.0,29.95,NNE,31,2.0,6.0,68,0.00,,,0.00,weatherlink.com 1.10,2013-09-25 15:10:00,
2013-09-25 11:25:00,70.5,59.0,29.95,East,80,0.0,5.0,67,0.00,,,0.00,weatherlink.com 1.10,2013-09-25 15:25:00,
2013-09-25 11:40:00,70.9,59.0,29.95,ESE,113,1.0,7.0,67,0.00,,,0.00,weatherlink.com 1.10,2013-09-25 15:40:00,
2013-09-25 11:55:00,71.0,59.0,29.95,NE,40,0.0,3.0,67,0.00,,,0.00,weatherlink.com 1.10,2013-09-25 15:55:00,
2013-09-25 12:10:00,70.5,61.0,29.95,NE,39,0.0,5.0,73,0.00,,,0.00,weatherlink.com 1.10,2013-09-25 16:10:00,
2013-09-25 12:25:00,70.3,61.0,29.95,NE,35,0.0,6.0,72,0.00,,,0.00,weatherlink.com 1.10,2013-09-25 16:25:00,
2013-09-25 12:40:00,70.7,62.0,29.94,NNE,32,0.0,4.0,73,0.00,,,0.00,weatherlink.com 1.10,2013-09-25 16:40:00,
2013-09-25 12:55:00,71.2,61.0,29.94,NNE,24,0.0,4.0,70,0.00,,,0.00,weatherlink.com 1.10,2013-09-25 16:55:00,
2013-09-25 13:10:00,71.2,61.0,29.93,NE,38,3.0,4.0,71,0.00,,,0.00,weatherlink.com 1.10,2013-09-25 17:10:00,
2013-09-25 13:25:00,71.4,62.0,29.93,NE,47,2.0,6.0,72,0.00,,,0.00,weatherlink.com 1.10,2013-09-25 17:25:00,
2013-09-25 13:40:00,71.5,60.0,29.93,ESE,118,1.0,4.0,68,0.00,,,0.00,weatherlink.com 1.10,2013-09-25 17:40:00,
2013-09-25 13:55:00,71.4,61.0,29.92,NE,41,0.0,3.0,70,0.00,,,0.00,weatherlink.com 1.10,2013-09-25 17:55:00,
2013-09-25 14:10:00,71.5,62.0,29.92,NE,39,0.0,1.0,72,0.00,,,0.00,weatherlink.com 1.10,2013-09-25 18:10:00,
2013-09-25 14:25:00,71.6,61.0,29.92,NE,39,0.0,5.0,70,0.00,,,0.00,weatherlink.com 1.10,2013-09-25 18:25:00,
2013-09-25 14:40:00,71.7,63.0,29.91,NNE,30,0.0,7.0,73,0.00,,,0.00,weatherlink.com 1.10,2013-09-25 18:40:00,
2013-09-25 14:55:00,72.2,61.0,29.91,NE,53,2.0,9.0,69,0.00,,,0.00,weatherlink.com 1.10,2013-09-25 18:55:00,
2013-09-25 15:10:00,71.9,62.0,29.91,NE,55,0.0,6.0,72,0.00,,,0.00,weatherlink.com 1.10,2013-09-25 19:10:00,
2013-09-25 15:25:00,72.2,63.0,29.91,NE,41,0.0,4.0,73,0.00,,,0.00,weatherlink.com 1.10,2013-09-25 19:25:00,
2013-09-25 15:40:00,72.9,63.0,29.90,North,355,4.0,5.0,70,0.00,,,0.00,weatherlink.com 1.10,2013-09-25 19:40:00,
2013-09-25 15:55:00,72.1,63.0,29.90,NE,36,2.0,6.0,72,0.00,,,0.00,weatherlink.com 1.10,2013-09-25 19:55:00,
2013-09-25 16:11:00,72.2,63.0,29.90,NNW,337,0.0,8.0,72,0.00,,,0.00,weatherlink.com 1.10,2013-09-25 20:11:00,
2013-09-25 16:26:00,71.9,62.0,29.89,NNE,18,1.0,7.0,71,0.00,,,0.00,weatherlink.com 1.10,2013-09-25 20:26:00,
2013-09-25 16:41:00,71.5,62.0,29.89,NE,45,0.0,5.0,73,0.00,,,0.00,weatherlink.com 1.10,2013-09-25 20:41:00,
2013-09-25 16:56:00,71.6,62.0,29.89,NNE,26,2.0,5.0,72,0.00,,,0.00,weatherlink.com 1.10,2013-09-25 20:56:00,
2013-09-25 17:11:00,71.7,61.0,29.89,NE,36,3.0,5.0,70,0.00,,,0.00,weatherlink.com 1.10,2013-09-25 21:11:00,
2013-09-25 17:26:00,70.9,61.0,29.89,NNE,22,0.0,7.0,71,0.00,,,0.00,weatherlink.com 1.10,2013-09-25 21:26:00,
2013-09-25 17:41:00,70.5,62.0,29.89,NNE,24,0.0,2.0,74,0.00,,,0.00,weatherlink.com 1.10,2013-09-25 21:41:00,
2013-09-25 17:56:00,70.0,62.0,29.89,NNE,24,0.0,0.0,75,0.00,,,0.00,weatherlink.com 1.10,2013-09-25 21:56:00,
2013-09-25 18:11:00,69.5,62.0,29.90,NNE,24,0.0,0.0,77,0.00,,,0.00,weatherlink.com 1.10,2013-09-25 22:11:00,
2013-09-25 18:26:00,69.0,62.0,29.89,NNE,24,0.0,0.0,78,0.00,,,0.00,weatherlink.com 1.10,2013-09-25 22:26:00,
2013-09-25 18:41:00,68.6,62.0,29.90,NNE,24,0.0,0.0,80,0.00,,,0.00,weatherlink.com 1.10,2013-09-25 22:41:00,
2013-09-25 18:56:00,68.3,62.0,29.90,NNE,24,0.0,0.0,81,0.00,,,0.00,weatherlink.com 1.10,2013-09-25 22:56:00,
2013-09-25 19:11:00,68.1,63.0,29.90,NNE,24,0.0,0.0,84,0.00,,,0.00,weatherlink.com 1.10,2013-09-25 23:11:00,
2013-09-25 19:26:00,67.5,63.0,29.90,NNE,24,0.0,0.0,85,0.00,,,0.00,weatherlink.com 1.10,2013-09-25 23:26:00,
2013-09-25 19:41:00,67.2,63.0,29.90,NNE,24,0.0,1.0,86,0.00,,,0.00,weatherlink.com 1.10,2013-09-25 23:41:00,
2013-09-25 19:56:00,66.8,62.0,29.90,NNW,339,1.0,6.0,84,0.00,,,0.00,weatherlink.com 1.10,2013-09-25 23:56:00,
2013-09-25 20:11:00,66.8,62.0,29.90,NE,43,0.0,0.0,83,0.00,,,0.00,weatherlink.com 1.10,2013-09-26 00:11:00,
2013-09-25 20:41:00,66.6,63.0,29.90,NE,43,0.0,0.0,88,0.00,,,0.00,weatherlink.com 1.10,2013-09-26 00:41:00,
2013-09-25 20:56:00,65.6,62.0,29.90,NE,43,0.0,0.0,88,0.00,,,0.00,weatherlink.com 1.10,2013-09-26 00:56:00,
2013-09-25 21:11:00,65.0,62.0,29.90,NE,43,0.0,0.0,90,0.01,,,0.01,weatherlink.com 1.10,2013-09-26 01:11:00,
2013-09-25 21:26:00,64.5,62.0,29.90,NE,43,0.0,0.0,91,0.01,,,0.01,weatherlink.com 1.10,2013-09-26 01:26:00,
2013-09-25 21:41:00,64.2,62.0,29.90,NE,43,0.0,0.0,91,0.01,,,0.01,weatherlink.com 1.10,2013-09-26 01:41:00,
2013-09-25 21:56:00,64.0,62.0,29.90,NE,43,0.0,0.0,93,0.01,,,0.01,weatherlink.com 1.10,2013-09-26 01:56:00,
2013-09-25 22:11:00,63.8,62.0,29.90,NE,43,0.0,0.0,94,0.00,,,0.01,weatherlink.com 1.10,2013-09-26 02:11:00,
2013-09-25 22:26:00,63.2,62.0,29.90,NE,43,0.0,0.0,94,0.00,,,0.01,weatherlink.com 1.10,2013-09-26 02:26:00,
2013-09-25 22:41:00,62.6,61.0,29.89,NE,43,0.0,0.0,94,0.00,,,0.01,weatherlink.com 1.10,2013-09-26 02:41:00,
2013-09-25 22:56:00,62.2,61.0,29.89,NE,43,0.0,0.0,95,0.00,,,0.01,weatherlink.com 1.10,2013-09-26 02:56:00,
2013-09-25 23:11:00,61.8,60.0,29.89,NE,43,0.0,0.0,95,0.00,,,0.01,weatherlink.com 1.10,2013-09-26 03:11:00,
2013-09-25 23:26:00,61.5,60.0,29.89,NE,43,0.0,0.0,95,0.00,,,0.01,weatherlink.com 1.10,2013-09-26 03:26:00,
2013-09-25 23:41:00,61.2,60.0,29.89,NE,43,0.0,0.0,96,0.00,,,0.01,weatherlink.com 1.10,2013-09-26 03:41:00,
2013-09-25 23:56:00,60.9,60.0,29.90,NE,43,0.0,0.0,96,0.00,,,0.01,weatherlink.com 1.10,2013-09-26 03:56:00,